Главная страница
METAR-TAF:

METAR-TAF

Аэропорты :

Ringkøbing-Skjern, Дания

широта: 56-00N, долгота: 008-21E, высота над уровнем моря: 5 м

Текущие метеонаблюдения

Эта сводка был подготовлена 7 часа и 59 минут назад, в 14:20 UTC
Ветер 14 Узел от западный
Температура 9°C
Влажность 61%
Давление 1008 hPa
Видимость 10 км и более
Отдельные облака на высоте 2000 фута, мощно-кучевые.

METAR: EKVJ 071420Z 28014KT 9999 SCT020TCU 09/02 Q1008

Время: 00:19 (22:19 UTC)

Прогноз

Эта сводка был подготовлена 13 часа и 20 минут назад, в 08:59 UTC
Прогноз действительный с 07-го 09 UTC до 07-го 15 UTC
Ветер 10 Узел от западно-северо-западный
Видимость 10 км и более
Рассеянная облачность на высоте 2500 фута
временами
С 07-го 09 UTC до 07-го 15 UTC
Видимость: 4000 м
Рассеянная облачность на высоте 1200 фута
Отдельные облака на высоте 2000 фута, Кучево-дождевые.
ливневые дожди

TAF: EKVJ 070859Z 0709/0715 29010KT 9999 BKN025 TEMPO 0709/0715 4000 SHRA BKN012 SCT020CB

Метеонаблюдения и прогнозы для более 4000 аэропортов (сводки METAR и TAF).

Имеющиеся станции представлены на карте желтыми и красными точками.

Чтобы увидеть название станции, наведите на нее мышь.

Затем щелкните, чтобы увидеть метеонаблюдения и метеопрогнозы.

Управление картой: чтобы увеличить масштаб, щелкните зеленые кнопки с черным крестиком; чтобы уменьшить масштаб, щелкните зеленую кнопку с тире; для просмотра соседних карт щелкайте зеленые стрелки.


METAR-TAF: